Time;durP1;ratioP1;P1;durP2;ratioP2;P2;SDS_P1;SDS_P2;PMS_P1;PMS_P2;Temp;Humidity;BMP_temperature;BMP_pressure;BME280_temperature;BME280_humidity;BME280_pressure;Samples;Min_cycle;Max_cycle;Signal;HPM_P1;HPM_P2
2021/08/01 00:00:13;;;;;;;10.00;5.55;;;29.10;93.80;;;;;;4895678;29;20032;-76
2021/08/01 00:02:40;;;;;;;21.55;5.57;;;29.20;93.70;;;;;;4894684;29;20037;-76
2021/08/01 00:05:08;;;;;;;21.25;6.07;;;29.20;93.50;;;;;;4891870;29;20028;-76
2021/08/01 00:07:34;;;;;;;22.33;6.68;;;29.20;93.50;;;;;;4895607;29;20040;-76
2021/08/01 00:10:02;;;;;;;19.15;6.03;;;29.20;93.40;;;;;;4895062;29;20104;-75
2021/08/01 00:12:29;;;;;;;20.63;6.88;;;29.30;93.30;;;;;;4894360;29;20574;-76
2021/08/01 00:14:55;;;;;;;11.30;5.80;;;29.30;93.30;;;;;;4894304;29;20040;-75
2021/08/01 00:17:21;;;;;;;9.45;5.85;;;29.40;93.20;;;;;;4894658;29;20036;-76
2021/08/01 00:19:46;;;;;;;19.63;6.93;;;29.30;93.20;;;;;;4895385;29;20069;-75
2021/08/01 00:22:12;;;;;;;18.10;6.07;;;29.30;93.10;;;;;;4866757;29;20054;-74
2021/08/01 00:24:38;;;;;;;16.42;6.65;;;29.40;93.10;;;;;;4878579;29;20135;-75
2021/08/01 00:27:04;;;;;;;13.73;6.63;;;29.30;93.00;;;;;;4895263;29;20506;-76
2021/08/01 00:29:30;;;;;;;14.85;6.32;;;29.30;93.10;;;;;;4895180;29;20064;-76
2021/08/01 00:32:00;;;;;;;16.75;6.55;;;29.30;93.40;;;;;;4894546;29;20536;-75
2021/08/01 00:34:26;;;;;;;17.60;6.72;;;29.30;93.10;;;;;;4894960;29;20037;-75
2021/08/01 00:36:52;;;;;;;18.17;6.65;;;29.30;93.20;;;;;;4877932;29;20055;-77
2021/08/01 00:39:18;;;;;;;14.07;6.32;;;29.20;93.30;;;;;;4895344;29;20044;-75
2021/08/01 00:41:43;;;;;;;17.77;6.43;;;29.20;93.10;;;;;;4894977;29;20037;-76
2021/08/01 00:44:09;;;;;;;18.25;6.60;;;29.30;93.10;;;;;;4894665;29;20470;-76
2021/08/01 00:46:35;;;;;;;31.30;8.18;;;29.30;93.00;;;;;;4854824;29;1197655;-75
2021/08/01 00:49:02;;;;;;;27.65;7.38;;;29.40;93.00;;;;;;4895798;29;20471;-76
2021/08/01 00:51:29;;;;;;;20.90;7.07;;;29.40;93.00;;;;;;4891947;29;20044;-75
2021/08/01 00:54:02;;;;;;;21.25;6.55;;;29.30;93.10;;;;;;4895649;29;20096;-75
2021/08/01 00:56:29;;;;;;;17.52;7.25;;;29.20;93.20;;;;;;4895433;29;20077;-77
2021/08/01 00:58:55;;;;;;;16.45;6.70;;;29.20;93.40;;;;;;4895559;29;20036;-75
2021/08/01 01:01:39;;;;;;;16.25;6.90;;;29.10;93.50;;;;;;4895703;29;20036;-74
2021/08/01 01:04:29;;;;;;;22.02;6.65;;;29.10;93.60;;;;;;4895442;29;20040;-76
2021/08/01 01:07:08;;;;;;;16.77;5.90;;;29.10;93.80;;;;;;4895536;29;20143;-75
2021/08/01 01:09:45;;;;;;;24.23;6.30;;;29.10;93.90;;;;;;4895612;29;20036;-74
2021/08/01 01:12:15;;;;;;;22.70;6.60;;;29.10;94.10;;;;;;4895148;29;20025;-75
2021/08/01 01:14:45;;;;;;;20.33;6.07;;;29.10;94.10;;;;;;4878869;29;20041;-77
2021/08/01 01:17:13;;;;;;;21.57;6.53;;;29.10;94.30;;;;;;4895589;29;20036;-75
2021/08/01 01:20:22;;;;;;;23.08;6.70;;;29.10;94.50;;;;;;4896039;29;20032;-74
2021/08/01 01:23:08;;;;;;;33.65;7.00;;;29.10;94.70;;;;;;4895214;29;20037;-74
2021/08/01 01:25:48;;;;;;;20.02;6.95;;;29.00;94.70;;;;;;4895380;29;20076;-75
2021/08/01 01:28:29;;;;;;;24.23;7.07;;;29.00;95.00;;;;;;4894504;29;20458;-76
2021/08/01 01:31:25;;;;;;;28.60;7.43;;;29.00;95.10;;;;;;4893089;29;20117;-76
2021/08/01 01:34:07;;;;;;;21.58;7.07;;;29.00;95.50;;;;;;4891763;29;20367;-76
2021/08/01 01:36:34;;;;;;;21.52;7.50;;;28.90;95.80;;;;;;4895578;29;20037;-76
2021/08/01 01:39:03;;;;;;;22.80;7.07;;;28.90;96.00;;;;;;4893578;29;20102;-76
2021/08/01 01:41:30;;;;;;;25.55;7.20;;;28.80;96.10;;;;;;4898206;29;20431;-77
2021/08/01 01:43:56;;;;;;;23.70;6.72;;;28.80;96.60;;;;;;4882636;29;20040;-76
2021/08/01 01:46:24;;;;;;;16.67;6.47;;;28.80;96.40;;;;;;4899637;29;20040;-75
2021/08/01 01:48:51;;;;;;;19.83;7.43;;;28.80;96.50;;;;;;4887170;29;20033;-77
2021/08/01 01:51:18;;;;;;;28.20;6.82;;;28.80;96.50;;;;;;4898582;29;20462;-76
2021/08/01 01:53:44;;;;;;;21.45;6.43;;;28.80;96.50;;;;;;4898259;29;20031;-76
2021/08/01 01:56:13;;;;;;;19.73;6.43;;;28.80;96.60;;;;;;4899388;29;20050;-76
2021/08/01 01:58:40;;;;;;;23.48;7.90;;;28.70;96.70;;;;;;4899286;29;20096;-76
2021/08/01 02:01:06;;;;;;;28.15;7.85;;;28.80;97.10;;;;;;4899288;29;20466;-76
2021/08/01 02:03:33;;;;;;;31.35;6.80;;;28.80;96.80;;;;;;4899396;29;20098;-76
2021/08/01 02:05:59;;;;;;;23.95;6.47;;;28.80;96.80;;;;;;4898509;29;20024;-77
2021/08/01 02:08:28;;;;;;;20.48;7.50;;;28.80;96.90;;;;;;4898556;29;20036;-76
2021/08/01 02:10:59;;;;;;;25.02;6.95;;;28.80;97.10;;;;;;4898126;29;20120;-76
2021/08/01 02:13:40;;;;;;;27.35;6.47;;;28.70;97.20;;;;;;4897279;29;20044;-77
2021/08/01 02:16:07;;;;;;;38.43;7.57;;;28.70;97.30;;;;;;4897970;29;20035;-77
2021/08/01 02:18:53;;;;;;;26.08;7.15;;;28.70;97.40;;;;;;4898142;29;20051;-76
2021/08/01 02:21:20;;;;;;;24.88;6.75;;;28.70;97.40;;;;;;4886153;29;20128;-76
2021/08/01 02:23:48;;;;;;;32.92;7.90;;;28.70;97.30;;;;;;4887590;29;20069;-76
2021/08/01 02:26:17;;;;;;;22.45;7.20;;;28.60;97.30;;;;;;4897782;29;20028;-76
2021/08/01 02:28:44;;;;;;;28.33;8.38;;;28.60;97.40;;;;;;4898534;29;20505;-77
2021/08/01 02:31:12;;;;;;;24.90;7.28;;;28.60;97.20;;;;;;4897783;29;20044;-77
2021/08/01 02:33:38;;;;;;;24.08;7.55;;;28.70;97.30;;;;;;4888755;29;20038;-77
2021/08/01 02:36:07;;;;;;;22.25;7.20;;;28.70;97.20;;;;;;4897678;29;20128;-76
2021/08/01 02:38:34;;;;;;;21.73;7.45;;;28.70;97.00;;;;;;4897767;29;20056;-77
2021/08/01 02:41:08;;;;;;;18.20;6.85;;;28.70;97.20;;;;;;4897471;29;20033;-76
2021/08/01 02:43:35;;;;;;;25.00;7.03;;;28.70;97.20;;;;;;4896249;29;20029;-76
2021/08/01 02:46:02;;;;;;;20.50;6.32;;;28.70;97.20;;;;;;4892083;29;20529;-76
2021/08/01 02:48:30;;;;;;;19.88;6.63;;;28.70;97.20;;;;;;4879421;29;20490;-74
2021/08/01 02:51:00;;;;;;;26.48;7.07;;;28.60;97.30;;;;;;4878637;29;20029;-76
2021/08/01 02:53:27;;;;;;;29.52;7.63;;;28.60;97.30;;;;;;4877362;29;20025;-76
2021/08/01 02:55:57;;;;;;;19.15;6.78;;;28.50;97.20;;;;;;4891097;29;20128;-78
2021/08/01 02:58:27;;;;;;;23.23;6.43;;;28.50;97.30;;;;;;4877833;29;20053;-76
2021/08/01 03:00:53;;;;;;;16.42;6.07;;;28.50;97.40;;;;;;4878917;29;20029;-76
2021/08/01 03:03:21;;;;;;;29.52;7.75;;;28.50;97.50;;;;;;4878435;29;20044;-74
2021/08/01 03:05:47;;;;;;;16.23;6.43;;;28.40;97.60;;;;;;4878566;29;20044;-77
2021/08/01 03:08:14;;;;;;;25.80;6.80;;;28.50;97.70;;;;;;4878269;29;20037;-77
2021/08/01 03:10:47;;;;;;;34.97;6.60;;;28.40;97.80;;;;;;4878688;29;20044;-76
2021/08/01 03:13:13;;;;;;;18.02;6.65;;;28.40;97.90;;;;;;4878775;29;20037;-77
2021/08/01 03:15:43;;;;;;;24.48;7.40;;;28.30;98.00;;;;;;4875557;29;20033;-76
2021/08/01 03:18:09;;;;;;;28.15;6.93;;;28.40;98.10;;;;;;4880811;29;20048;-76
2021/08/01 03:20:35;;;;;;;30.00;6.55;;;28.40;98.10;;;;;;4878428;29;20166;-76
2021/08/01 03:23:01;;;;;;;31.95;7.88;;;28.50;98.20;;;;;;4878577;29;20033;-75
2021/08/01 03:25:27;;;;;;;20.75;6.68;;;28.40;98.20;;;;;;4878337;29;20044;-76
2021/08/01 03:27:52;;;;;;;22.60;6.85;;;28.40;98.30;;;;;;4878318;29;20104;-77
2021/08/01 03:30:18;;;;;;;29.23;6.95;;;28.30;98.50;;;;;;4877196;29;20061;-76
2021/08/01 03:32:44;;;;;;;22.65;7.10;;;28.30;98.50;;;;;;4892423;29;20042;-77
2021/08/01 03:35:10;;;;;;;32.38;7.38;;;28.30;98.60;;;;;;4885854;29;20029;-75
2021/08/01 03:37:35;;;;;;;25.98;7.15;;;28.20;98.70;;;;;;4877480;29;20085;-76
2021/08/01 03:40:02;;;;;;;28.95;7.55;;;28.20;98.90;;;;;;4877397;29;20036;-75
2021/08/01 03:42:27;;;;;;;19.52;6.95;;;28.10;98.90;;;;;;4877138;29;20567;-76
2021/08/01 03:44:53;;;;;;;22.27;7.15;;;28.10;99.20;;;;;;4882602;29;20057;-76
2021/08/01 03:47:19;;;;;;;17.70;7.00;;;28.10;99.20;;;;;;4886539;29;20036;-77
2021/08/01 03:49:45;;;;;;;18.45;6.53;;;28.10;99.30;;;;;;4881285;29;20044;-74
2021/08/01 03:52:11;;;;;;;27.70;6.78;;;28.10;99.30;;;;;;4877781;29;20068;-76
2021/08/01 03:54:37;;;;;;;30.60;7.90;;;28.10;99.30;;;;;;4878791;29;20060;-74
2021/08/01 03:57:03;;;;;;;22.17;6.40;;;28.10;99.50;;;;;;4879858;29;20709;-76
2021/08/01 03:59:34;;;;;;;23.10;6.65;;;28.10;99.60;;;;;;4881766;29;20029;-76
2021/08/01 04:01:59;;;;;;;23.27;7.15;;;28.10;99.80;;;;;;4877369;29;20057;-76
2021/08/01 04:04:25;;;;;;;31.10;6.85;;;28.10;99.90;;;;;;4877453;29;20072;-77
2021/08/01 04:06:51;;;;;;;24.83;6.65;;;28.10;99.90;;;;;;4877749;29;20712;-76
2021/08/01 04:09:16;;;;;;;23.90;7.75;;;28.10;99.90;;;;;;4877566;29;20051;-76
2021/08/01 04:11:44;;;;;;;23.88;7.50;;;28.10;99.90;;;;;;4878386;29;20064;-76
2021/08/01 04:14:10;;;;;;;15.57;6.55;;;28.10;99.90;;;;;;4878415;29;20021;-75
2021/08/01 04:16:36;;;;;;;20.27;6.20;;;28.00;99.90;;;;;;4879439;29;20041;-77
2021/08/01 04:19:09;;;;;;;14.85;6.78;;;28.00;99.90;;;;;;4877951;29;20028;-75
2021/08/01 04:21:37;;;;;;;23.17;7.85;;;28.00;99.90;;;;;;4861480;29;20033;-76
2021/08/01 04:24:03;;;;;;;22.40;6.50;;;28.00;99.90;;;;;;4877863;29;20033;-75
2021/08/01 04:26:29;;;;;;;20.35;6.82;;;28.00;99.90;;;;;;4877965;29;20052;-76
2021/08/01 04:28:55;;;;;;;16.63;6.72;;;28.10;99.90;;;;;;4877752;29;20391;-76
2021/08/01 04:31:20;;;;;;;26.25;7.60;;;28.00;99.90;;;;;;4871652;29;20037;-76
2021/08/01 04:33:46;;;;;;;20.65;7.13;;;28.00;99.90;;;;;;4877914;29;20021;-74
2021/08/01 04:36:12;;;;;;;26.02;8.07;;;27.90;99.90;;;;;;4881684;29;20100;-77
2021/08/01 04:38:37;;;;;;;16.88;6.90;;;27.80;99.90;;;;;;4846436;29;20045;-75
2021/08/01 04:41:03;;;;;;;30.38;7.28;;;27.80;99.90;;;;;;4876475;29;20040;-74
2021/08/01 04:43:29;;;;;;;20.08;7.35;;;27.80;99.90;;;;;;4877647;29;20041;-74
2021/08/01 04:45:54;;;;;;;21.40;7.45;;;27.70;99.90;;;;;;4877236;29;20080;-75
2021/08/01 04:48:20;;;;;;;19.02;7.22;;;27.70;99.90;;;;;;4877546;29;20037;-76
2021/08/01 04:50:46;;;;;;;24.55;8.13;;;27.70;99.90;;;;;;4877596;29;20044;-77
2021/08/01 04:53:11;;;;;;;20.73;6.47;;;27.60;99.90;;;;;;4877595;29;20128;-76
2021/08/01 04:55:38;;;;;;;22.67;7.68;;;27.60;99.90;;;;;;4876535;29;20548;-76
2021/08/01 04:58:05;;;;;;;16.70;6.55;;;27.70;99.90;;;;;;4883118;29;20041;-76
2021/08/01 05:00:30;;;;;;;19.67;6.88;;;27.70;99.90;;;;;;4874143;29;20072;-76
2021/08/01 05:03:03;;;;;;;20.77;7.13;;;27.80;99.90;;;;;;4877708;29;20166;-75
2021/08/01 05:05:34;;;;;;;25.40;7.32;;;27.80;99.90;;;;;;4886950;29;20068;-76
2021/08/01 05:08:00;;;;;;;26.20;8.00;;;28.00;99.90;;;;;;4877980;29;20044;-75
2021/08/01 05:10:26;;;;;;;26.27;7.85;;;28.10;99.90;;;;;;4877599;29;20041;-76
2021/08/01 05:12:51;;;;;;;19.88;7.10;;;28.10;99.90;;;;;;4877193;29;20055;-76
2021/08/01 05:15:17;;;;;;;41.72;7.68;;;28.10;99.90;;;;;;4884445;29;20037;-76
2021/08/01 05:17:43;;;;;;;25.88;7.05;;;28.40;99.90;;;;;;4889153;29;20573;-75
2021/08/01 05:20:09;;;;;;;28.90;6.85;;;28.70;99.90;;;;;;4881795;29;20474;-76
2021/08/01 05:22:34;;;;;;;26.60;7.45;;;28.60;99.90;;;;;;4880999;29;20053;-76
2021/08/01 05:25:00;;;;;;;34.90;8.50;;;28.40;99.90;;;;;;4880860;29;20466;-76
2021/08/01 05:27:26;;;;;;;32.25;8.80;;;28.20;99.90;;;;;;4880343;29;20089;-76
2021/08/01 05:29:51;;;;;;;33.42;7.22;;;28.20;99.90;;;;;;4874075;29;20078;-76
2021/08/01 05:32:17;;;;;;;20.83;6.97;;;28.40;99.90;;;;;;4880340;29;20076;-76
2021/08/01 05:34:43;;;;;;;34.90;7.50;;;28.80;99.90;;;;;;4879807;29;20092;-74
2021/08/01 05:37:08;;;;;;;23.48;7.25;;;29.60;99.90;;;;;;4880579;29;20072;-76
2021/08/01 05:39:37;;;;;;;33.10;7.10;;;30.50;99.90;;;;;;4879250;29;20033;-76
2021/08/01 05:42:03;;;;;;;35.70;7.40;;;31.60;99.90;;;;;;4880698;29;20120;-75
2021/08/01 05:44:31;;;;;;;34.03;7.68;;;32.10;99.30;;;;;;4880557;29;20025;-77
2021/08/01 05:46:57;;;;;;;31.60;7.68;;;32.20;99.10;;;;;;4881058;29;20112;-76
2021/08/01 05:49:22;;;;;;;31.40;6.85;;;32.30;98.90;;;;;;4879423;29;20695;-76
2021/08/01 05:51:48;;;;;;;25.23;6.28;;;33.10;98.30;;;;;;4880986;29;20777;-77
2021/08/01 05:54:13;;;;;;;23.45;6.50;;;34.30;97.10;;;;;;4880477;29;20111;-76
2021/08/01 05:56:39;;;;;;;28.60;6.75;;;35.00;96.00;;;;;;4880787;29;20505;-76
2021/08/01 05:59:05;;;;;;;23.98;5.95;;;36.30;95.00;;;;;;4880440;29;20041;-75
2021/08/01 06:01:30;;;;;;;26.83;5.93;;;37.50;93.80;;;;;;4880181;29;20041;-76
2021/08/01 06:03:56;;;;;;;22.40;6.85;;;38.10;93.10;;;;;;4880562;29;20139;-78
2021/08/01 06:06:23;;;;;;;20.52;5.45;;;37.90;92.50;;;;;;4880390;29;20104;-77
2021/08/01 06:08:50;;;;;;;21.25;6.47;;;37.50;92.90;;;;;;4877311;29;20162;-77
2021/08/01 06:11:16;;;;;;;34.05;7.53;;;37.50;92.90;;;;;;4878651;29;20390;-77
2021/08/01 06:13:42;;;;;;;43.17;6.65;;;37.90;92.80;;;;;;4879572;29;20021;-77
2021/08/01 06:16:12;;;;;;;21.00;5.30;;;38.50;92.20;;;;;;4880292;29;20037;-76
2021/08/01 06:18:39;;;;;;;26.75;5.85;;;39.20;91.60;;;;;;4880234;29;20505;-76
2021/08/01 06:21:16;;;;;;;23.58;5.95;;;39.10;91.30;;;;;;4887987;29;20032;-77
2021/08/01 06:23:52;;;;;;;27.48;6.53;;;38.80;91.30;;;;;;4880243;29;20495;-76
2021/08/01 06:26:19;;;;;;;22.17;5.88;;;37.40;92.60;;;;;;4879986;29;20041;-76
2021/08/01 06:28:45;;;;;;;18.92;6.68;;;35.70;94.00;;;;;;4879321;29;20040;-76
2021/08/01 06:31:11;;;;;;;19.85;6.25;;;34.50;95.30;;;;;;4870715;29;20033;-77
2021/08/01 06:33:38;;;;;;;23.02;6.80;;;33.70;96.50;;;;;;4877819;29;20082;-74
2021/08/01 06:36:06;;;;;;;29.83;7.45;;;33.30;97.00;;;;;;4879845;29;20041;-76
2021/08/01 06:38:31;;;;;;;34.28;7.85;;;32.10;98.40;;;;;;4879280;29;20122;-75
2021/08/01 06:40:57;;;;;;;29.95;7.75;;;31.70;99.10;;;;;;4880949;29;20030;-75
2021/08/01 06:43:23;;;;;;;21.27;7.80;;;30.90;99.90;;;;;;4884106;29;20041;-76
2021/08/01 06:45:49;;;;;;;26.02;7.47;;;30.20;99.90;;;;;;4879356;29;20542;-75
2021/08/01 06:48:14;;;;;;;28.38;7.72;;;29.80;99.90;;;;;;4879543;29;20399;-75
2021/08/01 06:50:40;;;;;;;26.42;8.20;;;29.60;99.90;;;;;;4879456;29;20029;-75
2021/08/01 06:53:06;;;;;;;30.20;7.35;;;29.70;99.90;;;;;;4879038;29;20036;-74
2021/08/01 06:55:31;;;;;;;23.17;6.75;;;30.50;99.90;;;;;;4877975;29;20032;-75
2021/08/01 06:57:57;;;;;;;29.15;7.90;;;30.40;99.90;;;;;;4879069;29;20498;-74
2021/08/01 07:00:23;;;;;;;30.95;7.63;;;30.20;99.90;;;;;;4878341;29;20116;-75
2021/08/01 07:03:07;;;;;;;27.58;8.50;;;29.80;99.90;;;;;;4878559;29;20030;-74
2021/08/01 07:05:32;;;;;;;36.08;7.72;;;29.70;99.90;;;;;;4878696;29;20025;-74
2021/08/01 07:07:58;;;;;;;27.33;7.78;;;30.20;99.90;;;;;;4878743;29;20467;-74
2021/08/01 07:10:25;;;;;;;36.25;8.13;;;32.10;99.90;;;;;;4878731;29;20029;-75
2021/08/01 07:12:51;;;;;;;38.55;8.15;;;33.80;98.30;;;;;;4884063;29;20591;-75
2021/08/01 07:15:22;;;;;;;17.52;5.93;;;34.50;97.10;;;;;;4877317;29;20041;-75
2021/08/01 07:17:47;;;;;;;27.40;6.80;;;34.20;97.20;;;;;;4877164;29;20124;-75
2021/08/01 07:20:14;;;;;;;24.65;6.50;;;34.20;97.40;;;;;;4877626;29;20116;-75
2021/08/01 07:22:40;;;;;;;30.17;6.47;;;34.20;97.30;;;;;;4879680;29;20084;-74
2021/08/01 07:25:08;;;;;;;26.33;6.50;;;33.80;97.50;;;;;;4882713;29;20033;-75
2021/08/01 07:27:33;;;;;;;23.38;6.97;;;34.10;97.60;;;;;;4875970;29;20112;-74
2021/08/01 07:29:59;;;;;;;21.88;6.10;;;35.20;96.80;;;;;;4870436;29;20029;-74
2021/08/01 07:32:25;;;;;;;28.08;6.45;;;36.60;95.50;;;;;;4876644;29;20065;-74
2021/08/01 07:34:51;;;;;;;28.02;6.45;;;37.50;94.10;;;;;;4876442;29;20044;-73
2021/08/01 07:37:17;;;;;;;30.67;6.25;;;37.80;93.50;;;;;;4877415;29;20112;-73
2021/08/01 07:39:43;;;;;;;26.25;6.10;;;38.30;93.20;;;;;;4880050;29;20096;-75
2021/08/01 07:42:10;;;;;;;46.55;6.90;;;38.50;92.90;;;;;;4878105;29;20037;-73
2021/08/01 07:44:45;;;;;;;34.20;6.15;;;38.90;92.80;;;;;;4879512;29;20452;-74
2021/08/01 07:47:12;;;;;;;19.13;5.07;;;39.70;92.10;;;;;;4876612;29;20093;-74
2021/08/01 07:49:39;;;;;;;21.88;5.22;;;39.40;91.60;;;;;;4875645;29;20038;-74
2021/08/01 07:52:05;;;;;;;26.73;5.93;;;37.80;93.10;;;;;;4875970;29;20029;-73
2021/08/01 07:54:30;;;;;;;23.25;6.10;;;37.50;93.40;;;;;;4875806;29;20052;-74
2021/08/01 07:56:56;;;;;;;36.58;6.03;;;37.10;93.70;;;;;;4876193;29;20057;-75
2021/08/01 07:59:22;;;;;;;32.10;6.18;;;36.70;93.90;;;;;;4876847;29;20040;-74
2021/08/01 08:01:48;;;;;;;21.67;6.03;;;36.10;94.20;;;;;;4875814;29;20550;-74
2021/08/01 08:04:13;;;;;;;25.13;6.32;;;35.80;94.80;;;;;;4876842;29;20029;-74
2021/08/01 08:06:39;;;;;;;25.70;6.85;;;35.40;95.40;;;;;;4878535;29;20056;-74
2021/08/01 08:09:05;;;;;;;30.13;7.22;;;35.00;95.60;;;;;;4878616;29;20033;-74
2021/08/01 08:11:31;;;;;;;33.13;6.65;;;35.00;95.60;;;;;;4878817;29;20040;-74
2021/08/01 08:13:57;;;;;;;26.80;6.18;;;34.60;95.60;;;;;;4875537;29;20584;-74
2021/08/01 08:16:23;;;;;;;34.28;7.05;;;34.00;95.90;;;;;;4876079;29;20036;-74
2021/08/01 08:18:51;;;;;;;35.58;6.65;;;33.60;96.70;;;;;;4877799;29;20494;-74
2021/08/01 08:21:18;;;;;;;26.75;7.20;;;33.10;96.70;;;;;;4878105;29;20112;-74
2021/08/01 08:23:43;;;;;;;23.25;6.53;;;32.60;97.40;;;;;;4878205;29;20053;-75
2021/08/01 08:26:09;;;;;;;37.58;7.28;;;31.90;98.50;;;;;;4877189;29;20039;-73
2021/08/01 08:28:35;;;;;;;35.45;7.50;;;31.60;98.80;;;;;;4865302;29;20562;-74
2021/08/01 08:31:01;;;;;;;31.50;7.60;;;31.10;99.30;;;;;;4878622;29;20107;-77
2021/08/01 08:33:26;;;;;;;26.13;6.32;;;30.60;99.50;;;;;;4877747;29;20035;-74
2021/08/01 08:35:52;;;;;;;38.78;6.90;;;30.20;99.40;;;;;;4877094;29;20051;-76
2021/08/01 08:38:18;;;;;;;35.78;7.78;;;29.90;99.60;;;;;;4877975;29;20045;-76
2021/08/01 08:40:44;;;;;;;32.78;7.90;;;30.10;99.90;;;;;;4878186;29;20064;-74
2021/08/01 08:43:10;;;;;;;32.83;7.32;;;30.00;99.70;;;;;;4875519;29;20127;-74
2021/08/01 08:45:37;;;;;;;42.33;7.88;;;30.20;99.90;;;;;;4865334;29;20538;-74
2021/08/01 08:48:04;;;;;;;41.55;8.02;;;30.60;99.60;;;;;;4877020;29;20032;-75
2021/08/01 08:50:32;;;;;;;27.60;6.55;;;30.60;99.10;;;;;;4879290;29;20037;-73
2021/08/01 08:53:02;;;;;;;29.67;7.45;;;30.40;99.40;;;;;;4880788;29;20063;-74
2021/08/01 08:55:33;;;;;;;42.20;8.00;;;30.20;99.80;;;;;;4882514;29;20032;-74
2021/08/01 08:58:02;;;;;;;36.65;7.47;;;30.20;99.90;;;;;;4882096;29;20787;-74
2021/08/01 09:00:28;;;;;;;34.30;8.65;;;30.50;99.90;;;;;;4869417;29;20038;-74
2021/08/01 09:02:54;;;;;;;30.60;7.07;;;30.90;99.90;;;;;;4882045;29;20052;-74
2021/08/01 09:05:20;;;;;;;28.20;7.35;;;31.40;99.90;;;;;;4881963;29;20033;-74
2021/08/01 09:07:46;;;;;;;34.17;8.40;;;31.70;99.80;;;;;;4881959;29;20033;-74
2021/08/01 09:10:12;;;;;;;30.17;7.75;;;31.70;99.90;;;;;;4881654;29;20049;-75
2021/08/01 09:12:45;;;;;;;51.40;8.32;;;31.70;99.90;;;;;;4879372;29;20044;-75
2021/08/01 09:15:24;;;;;;;36.10;7.47;;;31.30;99.90;;;;;;4880501;29;20120;-75
2021/08/01 09:17:53;;;;;;;27.95;7.45;;;31.30;99.90;;;;;;4881125;29;20119;-75
2021/08/01 09:20:22;;;;;;;35.50;8.38;;;31.60;99.90;;;;;;4878421;29;20048;-75
2021/08/01 09:23:05;;;;;;;40.70;7.30;;;31.80;99.90;;;;;;4875504;29;20041;-75
2021/08/01 09:25:42;;;;;;;24.20;7.25;;;31.80;99.90;;;;;;4876164;29;20033;-76
2021/08/01 09:28:09;;;;;;;26.10;7.40;;;31.80;99.90;;;;;;4880785;29;20494;-75
2021/08/01 09:30:43;;;;;;;44.25;8.90;;;31.80;99.90;;;;;;4877545;29;20029;-76
2021/08/01 09:33:09;;;;;;;31.80;7.95;;;31.80;99.90;;;;;;4875895;29;20044;-75
2021/08/01 09:35:34;;;;;;;52.97;8.98;;;31.60;99.90;;;;;;4880380;29;20438;-76
2021/08/01 09:38:00;;;;;;;52.65;10.23;;;31.50;99.90;;;;;;4880298;29;20049;-75
2021/08/01 09:40:31;;;;;;;42.95;10.10;;;31.30;99.90;;;;;;4880511;29;20040;-75
2021/08/01 09:43:10;;;;;;;38.70;8.70;;;30.90;99.90;;;;;;4879106;29;20133;-75
2021/08/01 09:45:37;;;;;;;41.97;8.63;;;30.60;99.90;;;;;;4880243;29;20117;-75
2021/08/01 09:48:15;;;;;;;36.92;9.00;;;30.30;99.90;;;;;;4880376;29;20044;-76
2021/08/01 09:51:17;;;;;;;44.40;9.05;;;30.20;99.90;;;;;;4880378;29;20037;-76
2021/08/01 09:53:43;;;;;;;;;;;30.20;99.90;;;;;;4855449;29;20154;-75
2021/08/01 09:56:14;;;;;;;48.67;8.32;;;30.30;99.90;;;;;;4874286;29;19982;-76
2021/08/01 09:58:40;;;;;;;50.42;9.80;;;30.30;99.90;;;;;;4874690;29;20081;-78
2021/08/01 10:01:06;;;;;;;48.35;8.20;;;30.40;99.90;;;;;;4877560;29;20029;-75
2021/08/01 10:03:42;;;;;;;52.45;8.43;;;30.50;99.90;;;;;;4877862;29;20029;-77
2021/08/01 10:06:10;;;;;;;43.63;9.50;;;30.40;99.90;;;;;;4878597;29;20040;-77
2021/08/01 10:08:41;;;;;;;62.25;11.38;;;30.30;99.90;;;;;;4878398;29;20025;-74
2021/08/01 10:11:09;;;;;;;63.05;10.35;;;30.20;99.90;;;;;;4878629;29;20036;-75
2021/08/01 10:13:36;;;;;;;53.15;10.05;;;30.20;99.90;;;;;;4878730;29;20690;-76
2021/08/01 10:16:02;;;;;;;73.82;9.32;;;30.30;99.90;;;;;;4877869;29;20057;-76
2021/08/01 10:18:28;;;;;;;41.30;9.93;;;30.60;99.90;;;;;;4875896;29;20076;-75
2021/08/01 10:20:54;;;;;;;43.92;9.30;;;30.70;99.90;;;;;;4878917;29;20033;-76
2021/08/01 10:23:21;;;;;;;45.78;9.15;;;30.70;99.90;;;;;;4876301;29;20037;-76
2021/08/01 10:25:48;;;;;;;40.75;9.98;;;30.90;99.90;;;;;;4878415;29;20048;-77
2021/08/01 10:28:20;;;;;;;48.63;9.23;;;31.20;99.90;;;;;;4879451;29;20033;-78
2021/08/01 10:30:47;;;;;;;42.08;9.85;;;31.50;99.90;;;;;;4879151;29;20040;-77
2021/08/01 10:33:18;;;;;;;51.90;9.35;;;31.70;99.90;;;;;;4880008;29;20356;-77
2021/08/01 10:35:59;;;;;;;52.53;9.52;;;31.80;99.90;;;;;;4879236;29;20089;-75
2021/08/01 10:38:25;;;;;;;42.97;8.43;;;31.80;99.90;;;;;;4878664;29;20076;-75
2021/08/01 10:41:01;;;;;;;39.22;7.53;;;31.70;99.90;;;;;;4879100;29;20064;-76
2021/08/01 10:43:30;;;;;;;35.92;8.15;;;31.70;99.40;;;;;;4879290;29;20049;-78
2021/08/01 10:45:57;;;;;;;38.47;7.40;;;31.60;99.30;;;;;;4878938;29;20032;-78
2021/08/01 10:48:25;;;;;;;39.88;6.78;;;31.50;99.10;;;;;;4877035;29;20068;-77
2021/08/01 10:50:51;;;;;;;36.20;6.68;;;31.30;99.20;;;;;;4877801;29;20032;-77
2021/08/01 10:53:29;;;;;;;47.95;7.63;;;31.30;99.40;;;;;;4878168;29;20033;-75
2021/08/01 10:56:07;;;;;;;38.40;6.15;;;31.40;97.80;;;;;;4877579;29;20080;-77
2021/08/01 10:58:36;;;;;;;50.72;7.50;;;31.40;97.70;;;;;;4878672;29;20052;-75
2021/08/01 11:01:06;;;;;;;36.15;6.22;;;31.40;97.50;;;;;;4879061;29;21382;-74
2021/08/01 11:03:34;;;;;;;43.70;6.65;;;31.40;98.10;;;;;;4878684;29;20037;-74
2021/08/01 11:06:02;;;;;;;30.48;5.63;;;31.60;98.50;;;;;;4879266;29;20044;-76
2021/08/01 11:08:28;;;;;;;26.88;6.07;;;31.60;98.40;;;;;;4878619;29;20088;-75
2021/08/01 11:11:16;;;;;;;35.50;5.97;;;31.60;98.40;;;;;;4879204;29;20092;-75
2021/08/01 11:13:45;;;;;;;26.15;6.50;;;31.50;98.70;;;;;;4870886;29;20053;-74
2021/08/01 11:16:13;;;;;;;28.17;6.32;;;31.30;98.40;;;;;;4877498;29;20546;-74
2021/08/01 11:18:44;;;;;;;36.80;6.13;;;31.40;98.40;;;;;;4876033;29;20044;-75
2021/08/01 11:21:12;;;;;;;62.85;8.98;;;31.40;98.50;;;;;;4878517;29;20447;-72
2021/08/01 11:23:47;;;;;;;31.48;6.28;;;31.50;99.00;;;;;;4878404;29;20066;-74
2021/08/01 11:26:17;;;;;;;28.42;6.28;;;31.60;98.90;;;;;;4878803;29;20076;-75
2021/08/01 11:28:44;;;;;;;20.73;5.20;;;31.70;99.20;;;;;;4873342;29;20047;-78
2021/08/01 11:31:19;;;;;;;27.00;5.40;;;31.70;99.50;;;;;;4878520;29;20375;-75
2021/08/01 11:33:47;;;;;;;23.52;6.35;;;31.90;99.70;;;;;;4878431;29;20037;-75
2021/08/01 11:36:13;;;;;;;27.40;6.65;;;32.00;98.90;;;;;;4878061;29;20033;-75
2021/08/01 11:38:58;;;;;;;24.27;5.88;;;32.00;99.30;;;;;;4878207;29;20053;-75
2021/08/01 11:44:02;;;;;;;19.48;5.75;;;31.70;99.30;;;;;;4877330;29;20033;-73
2021/08/01 11:46:50;;;;;;;29.63;6.13;;;31.50;99.40;;;;;;4877761;29;20049;-75
2021/08/01 11:49:23;;;;;;;19.00;5.30;;;31.30;99.90;;;;;;4876846;29;20049;-75
2021/08/01 11:51:51;;;;;;;29.60;6.22;;;31.10;99.70;;;;;;4877888;29;20032;-73
2021/08/01 11:54:17;;;;;;;23.58;5.80;;;30.90;99.40;;;;;;4878040;29;20121;-73
2021/08/01 11:56:44;;;;;;;22.20;5.70;;;31.00;99.50;;;;;;4876410;29;20068;-75
2021/08/01 11:59:14;;;;;;;19.05;6.25;;;31.10;99.00;;;;;;4878044;29;20037;-73
2021/08/01 12:01:41;;;;;;;22.60;5.85;;;31.10;98.70;;;;;;4877925;29;20511;-73
2021/08/01 12:04:08;;;;;;;19.00;6.20;;;31.10;99.00;;;;;;4876772;29;20120;-75
2021/08/01 12:06:39;;;;;;;29.77;6.40;;;31.10;99.30;;;;;;4877283;29;20033;-75
2021/08/01 12:09:21;;;;;;;22.70;6.40;;;31.00;99.10;;;;;;4878048;29;20040;-75
2021/08/01 12:11:50;;;;;;;27.42;6.97;;;30.90;99.90;;;;;;4877391;29;20151;-75
2021/08/01 12:14:16;;;;;;;19.27;5.43;;;30.80;99.90;;;;;;4878176;29;20032;-74
2021/08/01 12:16:55;;;;;;;23.05;5.70;;;30.60;99.90;;;;;;4877509;29;20084;-73
2021/08/01 12:19:24;;;;;;;25.67;6.32;;;30.50;99.90;;;;;;4868497;29;20119;-76
2021/08/01 12:21:56;;;;;;;20.45;6.15;;;30.50;99.90;;;;;;4877862;29;20033;-76
2021/08/01 12:24:42;;;;;;;22.60;6.50;;;30.50;99.90;;;;;;4875051;29;20068;-75
2021/08/01 12:27:15;;;;;;;19.35;6.22;;;30.60;99.90;;;;;;4876281;29;20048;-75
2021/08/01 12:29:51;;;;;;;14.45;5.45;;;30.70;99.90;;;;;;4872580;29;20082;-73
2021/08/01 12:32:22;;;;;;;19.23;5.68;;;31.00;99.90;;;;;;4876699;29;20033;-74
2021/08/01 12:34:50;;;;;;;18.92;6.53;;;31.10;99.90;;;;;;4874576;29;20089;-75
2021/08/01 12:37:16;;;;;;;19.63;5.28;;;31.10;99.90;;;;;;4877406;29;20444;-74
2021/08/01 12:39:43;;;;;;;22.92;5.95;;;31.10;99.90;;;;;;4877417;29;20040;-76
2021/08/01 12:42:09;;;;;;;31.00;6.10;;;30.90;99.90;;;;;;4877750;29;20033;-73
2021/08/01 12:44:35;;;;;;;20.10;5.90;;;30.90;99.90;;;;;;4879846;29;20041;-75
2021/08/01 12:47:07;;;;;;;25.85;7.85;;;31.10;99.90;;;;;;4896200;29;20033;-74